5MA6 weather

St. Luke's Heliport
New Bedford, Massachusetts, United States

Public forecast

Using degrees Fahrenheit for public forecast. Weather courtesy of forecast.io.

Closest aviation weather report (METAR) to St. Luke's Heliport

Closest report is New Bedford Regional Airport, 3.1 nm (5.7 km) NNW. Retrieved 2020/04/02 05:53 UTC (1 hour ago):

KEWB 020553Z AUTO 35005KT 10SM -RA OVC044 04/02 A2961 RMK AO2 SLP029 P0000 60000 T00390022 10050 20039 57016

Closest aviation forecast (TAF) to St. Luke's Heliport

Closest forecast is Cape Cod Coast Guard Air Station, 18.8 nm (34.8 km) E. Retrieved 2020/04/02 06:40 UTC (15 minutes ago):

TAF KFMH 020538Z 0206/0306 35013G24KT P6SM -RA OVC015 FM021400 33016G30KT 6SM -RA OVC015 FM021700 34016G32KT 4SM -RA BR OVC015 FM022100 34015G31KT 2SM -RA BR OVC015 FM030000 36020G33KT 3SM -RA BR OVC008